sensor_id;sensor_type;location;lat;lon;timestamp;temperature;humidity
43414;DHT22;29013;49.676;8.606;2023-05-10T00:01:04;15.9;99.9
43414;DHT22;29013;49.676;8.606;2023-05-10T00:06:29;15.8;99.9
43414;DHT22;29013;49.676;8.606;2023-05-10T00:11:51;15.8;99.9
43414;DHT22;29013;49.676;8.606;2023-05-10T00:17:15;15.8;99.9
43414;DHT22;29013;49.676;8.606;2023-05-10T00:22:40;15.8;99.9
43414;DHT22;29013;49.676;8.606;2023-05-10T00:28:05;15.8;99.9
43414;DHT22;29013;49.676;8.606;2023-05-10T00:33:29;15.9;99.9
43414;DHT22;29013;49.676;8.606;2023-05-10T00:39:22;15.8;99.9
43414;DHT22;29013;49.676;8.606;2023-05-10T00:44:39;16.0;99.9
43414;DHT22;29013;49.676;8.606;2023-05-10T00:49:56;15.9;99.9
43414;DHT22;29013;49.676;8.606;2023-05-10T00:55:15;15.8;99.9
43414;DHT22;29013;49.676;8.606;2023-05-10T01:00:37;15.7;99.9
43414;DHT22;29013;49.676;8.606;2023-05-10T01:06:00;15.7;99.9
43414;DHT22;29013;49.676;8.606;2023-05-10T01:11:25;15.6;99.9
43414;DHT22;29013;49.676;8.606;2023-05-10T01:16:49;15.6;99.9
43414;DHT22;29013;49.676;8.606;2023-05-10T01:27:57;15.6;99.9
43414;DHT22;29013;49.676;8.606;2023-05-10T01:33:23;15.6;99.9
43414;DHT22;29013;49.676;8.606;2023-05-10T01:38:47;15.6;99.9
43414;DHT22;29013;49.676;8.606;2023-05-10T01:44:13;15.6;99.9
43414;DHT22;29013;49.676;8.606;2023-05-10T01:49:36;15.6;99.9
43414;DHT22;29013;49.676;8.606;2023-05-10T01:54:59;15.6;99.9
43414;DHT22;29013;49.676;8.606;2023-05-10T02:00:17;15.5;99.9
43414;DHT22;29013;49.676;8.606;2023-05-10T02:05:38;15.2;99.9
43414;DHT22;29013;49.676;8.606;2023-05-10T02:11:03;15.3;99.9
43414;DHT22;29013;49.676;8.606;2023-05-10T02:16:26;15.3;99.9
43414;DHT22;29013;49.676;8.606;2023-05-10T02:21:51;15.3;99.9
43414;DHT22;29013;49.676;8.606;2023-05-10T02:27:10;15.4;99.9
43414;DHT22;29013;49.676;8.606;2023-05-10T02:32:31;15.4;99.9
43414;DHT22;29013;49.676;8.606;2023-05-10T02:37:58;15.5;99.9
43414;DHT22;29013;49.676;8.606;2023-05-10T02:43:20;15.4;99.9
43414;DHT22;29013;49.676;8.606;2023-05-10T02:48:42;15.5;99.9
43414;DHT22;29013;49.676;8.606;2023-05-10T02:54:06;15.4;99.9
43414;DHT22;29013;49.676;8.606;2023-05-10T02:59:48;15.4;99.9
43414;DHT22;29013;49.676;8.606;2023-05-10T03:05:11;15.5;99.9
43414;DHT22;29013;49.676;8.606;2023-05-10T03:10:38;15.5;99.9
43414;DHT22;29013;49.676;8.606;2023-05-10T03:16:03;15.2;99.9
43414;DHT22;29013;49.676;8.606;2023-05-10T03:21:25;14.9;99.9
43414;DHT22;29013;49.676;8.606;2023-05-10T03:26:44;14.6;99.9
43414;DHT22;29013;49.676;8.606;2023-05-10T03:32:09;14.6;99.9
43414;DHT22;29013;49.676;8.606;2023-05-10T03:37:33;14.8;99.9
43414;DHT22;29013;49.676;8.606;2023-05-10T03:42:58;15.0;99.9
43414;DHT22;29013;49.676;8.606;2023-05-10T03:48:37;15.0;99.9
43414;DHT22;29013;49.676;8.606;2023-05-10T03:53:58;15.4;99.9
43414;DHT22;29013;49.676;8.606;2023-05-10T03:59:20;15.4;99.9
43414;DHT22;29013;49.676;8.606;2023-05-10T04:04:44;15.4;99.9
43414;DHT22;29013;49.676;8.606;2023-05-10T04:10:11;15.4;99.9
43414;DHT22;29013;49.676;8.606;2023-05-10T04:15:34;15.4;99.9
43414;DHT22;29013;49.676;8.606;2023-05-10T04:20:59;15.3;99.9
43414;DHT22;29013;49.676;8.606;2023-05-10T04:26:21;15.3;99.9
43414;DHT22;29013;49.676;8.606;2023-05-10T04:31:41;15.3;99.9
43414;DHT22;29013;49.676;8.606;2023-05-10T04:37:05;15.2;99.9
43414;DHT22;29013;49.676;8.606;2023-05-10T04:42:46;15.2;99.9
43414;DHT22;29013;49.676;8.606;2023-05-10T04:48:08;15.3;99.9
43414;DHT22;29013;49.676;8.606;2023-05-10T04:53:50;14.9;99.9
43414;DHT22;29013;49.676;8.606;2023-05-10T04:59:13;14.9;99.9
43414;DHT22;29013;49.676;8.606;2023-05-10T05:04:50;15.0;99.9
43414;DHT22;29013;49.676;8.606;2023-05-10T05:10:12;15.2;99.9
43414;DHT22;29013;49.676;8.606;2023-05-10T05:15:37;15.3;99.9
43414;DHT22;29013;49.676;8.606;2023-05-10T05:20:54;15.4;99.9
43414;DHT22;29013;49.676;8.606;2023-05-10T05:26:17;15.5;99.9
43414;DHT22;29013;49.676;8.606;2023-05-10T05:31:41;15.5;99.9
43414;DHT22;29013;49.676;8.606;2023-05-10T05:37:06;15.6;99.9
43414;DHT22;29013;49.676;8.606;2023-05-10T05:42:25;15.7;99.9
43414;DHT22;29013;49.676;8.606;2023-05-10T05:47:50;15.8;99.9
43414;DHT22;29013;49.676;8.606;2023-05-10T05:53:10;15.8;99.9
43414;DHT22;29013;49.676;8.606;2023-05-10T05:58:30;15.9;99.9
43414;DHT22;29013;49.676;8.606;2023-05-10T06:03:50;16.0;99.9
43414;DHT22;29013;49.676;8.606;2023-05-10T06:09:16;16.1;99.9
43414;DHT22;29013;49.676;8.606;2023-05-10T06:14:42;16.1;99.9
43414;DHT22;29013;49.676;8.606;2023-05-10T06:20:12;16.2;99.9
43414;DHT22;29013;49.676;8.606;2023-05-10T06:25:35;16.2;99.9
43414;DHT22;29013;49.676;8.606;2023-05-10T06:31:01;16.2;99.9
43414;DHT22;29013;49.676;8.606;2023-05-10T06:36:26;16.3;99.9
43414;DHT22;29013;49.676;8.606;2023-05-10T06:41:47;16.5;99.9
43414;DHT22;29013;49.676;8.606;2023-05-10T06:47:05;16.7;99.9
43414;DHT22;29013;49.676;8.606;2023-05-10T06:52:25;16.8;99.9
43414;DHT22;29013;49.676;8.606;2023-05-10T06:58:06;16.9;99.9
43414;DHT22;29013;49.676;8.606;2023-05-10T07:03:25;17.1;99.9
43414;DHT22;29013;49.676;8.606;2023-05-10T07:08:48;17.1;99.9
43414;DHT22;29013;49.676;8.606;2023-05-10T07:14:12;17.1;99.9
43414;DHT22;29013;49.676;8.606;2023-05-10T07:19:37;17.2;99.9
43414;DHT22;29013;49.676;8.606;2023-05-10T07:24:56;17.2;99.9
43414;DHT22;29013;49.676;8.606;2023-05-10T07:30:23;17.3;99.9
43414;DHT22;29013;49.676;8.606;2023-05-10T07:35:46;17.5;99.9
43414;DHT22;29013;49.676;8.606;2023-05-10T07:41:37;17.4;99.9
43414;DHT22;29013;49.676;8.606;2023-05-10T07:47:01;17.3;99.9
43414;DHT22;29013;49.676;8.606;2023-05-10T07:52:21;17.2;99.9
43414;DHT22;29013;49.676;8.606;2023-05-10T07:57:47;17.5;99.9
43414;DHT22;29013;49.676;8.606;2023-05-10T08:03:10;17.8;99.9
43414;DHT22;29013;49.676;8.606;2023-05-10T08:08:31;18.1;99.9
43414;DHT22;29013;49.676;8.606;2023-05-10T08:13:51;18.3;99.9
43414;DHT22;29013;49.676;8.606;2023-05-10T08:19:12;18.6;99.9
43414;DHT22;29013;49.676;8.606;2023-05-10T08:24:38;18.6;99.9
43414;DHT22;29013;49.676;8.606;2023-05-10T08:30:03;18.7;99.9
43414;DHT22;29013;49.676;8.606;2023-05-10T08:35:27;19.0;99.9
43414;DHT22;29013;49.676;8.606;2023-05-10T08:40:51;19.1;99.9
43414;DHT22;29013;49.676;8.606;2023-05-10T08:46:16;19.2;99.9
43414;DHT22;29013;49.676;8.606;2023-05-10T08:51:40;19.5;99.9
43414;DHT22;29013;49.676;8.606;2023-05-10T08:57:04;19.7;99.9
43414;DHT22;29013;49.676;8.606;2023-05-10T09:02:26;19.7;99.9
43414;DHT22;29013;49.676;8.606;2023-05-10T09:07:50;19.7;99.9
43414;DHT22;29013;49.676;8.606;2023-05-10T09:13:16;19.7;99.9
43414;DHT22;29013;49.676;8.606;2023-05-10T09:18:41;19.7;99.9
43414;DHT22;29013;49.676;8.606;2023-05-10T09:24:08;19.8;99.8
43414;DHT22;29013;49.676;8.606;2023-05-10T09:29:41;19.8;99.2
43414;DHT22;29013;49.676;8.606;2023-05-10T09:35:07;19.9;98.2
43414;DHT22;29013;49.676;8.606;2023-05-10T09:40:29;19.8;97.8
43414;DHT22;29013;49.676;8.606;2023-05-10T09:45:47;19.8;97.5
43414;DHT22;29013;49.676;8.606;2023-05-10T09:51:07;19.9;98.6
43414;DHT22;29013;49.676;8.606;2023-05-10T09:56:38;19.9;97.3
43414;DHT22;29013;49.676;8.606;2023-05-10T10:02:01;19.8;97.8
43414;DHT22;29013;49.676;8.606;2023-05-10T10:07:26;19.7;98.3
43414;DHT22;29013;49.676;8.606;2023-05-10T10:12:48;19.9;98.0
43414;DHT22;29013;49.676;8.606;2023-05-10T10:18:14;19.7;98.4
43414;DHT22;29013;49.676;8.606;2023-05-10T10:23:37;19.8;98.6
43414;DHT22;29013;49.676;8.606;2023-05-10T10:29:07;20.1;97.6
43414;DHT22;29013;49.676;8.606;2023-05-10T10:34:27;20.2;97.2
43414;DHT22;29013;49.676;8.606;2023-05-10T10:40:26;20.2;97.1
43414;DHT22;29013;49.676;8.606;2023-05-10T10:45:49;20.3;96.0
43414;DHT22;29013;49.676;8.606;2023-05-10T10:51:08;20.2;96.6
43414;DHT22;29013;49.676;8.606;2023-05-10T10:57:14;20.4;96.6
43414;DHT22;29013;49.676;8.606;2023-05-10T11:02:44;20.8;96.3
43414;DHT22;29013;49.676;8.606;2023-05-10T11:08:26;20.8;95.7
43414;DHT22;29013;49.676;8.606;2023-05-10T11:14:04;20.7;93.9
43414;DHT22;29013;49.676;8.606;2023-05-10T11:19:26;20.8;94.0
43414;DHT22;29013;49.676;8.606;2023-05-10T11:24:59;20.7;93.9
43414;DHT22;29013;49.676;8.606;2023-05-10T11:30:21;20.7;93.7
43414;DHT22;29013;49.676;8.606;2023-05-10T11:36:17;20.7;93.8
43414;DHT22;29013;49.676;8.606;2023-05-10T11:41:37;21.0;93.3
43414;DHT22;29013;49.676;8.606;2023-05-10T11:46:59;21.0;93.0
43414;DHT22;29013;49.676;8.606;2023-05-10T11:52:23;21.1;93.5
43414;DHT22;29013;49.676;8.606;2023-05-10T11:57:46;21.0;92.3
43414;DHT22;29013;49.676;8.606;2023-05-10T12:03:10;20.9;92.0
43414;DHT22;29013;49.676;8.606;2023-05-10T12:08:34;21.0;91.0
43414;DHT22;29013;49.676;8.606;2023-05-10T12:13:56;21.1;92.2
43414;DHT22;29013;49.676;8.606;2023-05-10T12:19:19;21.5;91.6
43414;DHT22;29013;49.676;8.606;2023-05-10T12:24:44;21.6;91.8
43414;DHT22;29013;49.676;8.606;2023-05-10T12:30:30;21.6;91.1
43414;DHT22;29013;49.676;8.606;2023-05-10T12:35:50;21.9;90.8
43414;DHT22;29013;49.676;8.606;2023-05-10T12:41:09;22.2;90.4
43414;DHT22;29013;49.676;8.606;2023-05-10T12:46:29;22.1;91.0
43414;DHT22;29013;49.676;8.606;2023-05-10T12:51:52;22.1;90.2
43414;DHT22;29013;49.676;8.606;2023-05-10T12:57:30;21.8;90.7
43414;DHT22;29013;49.676;8.606;2023-05-10T13:02:54;21.3;91.9
43414;DHT22;29013;49.676;8.606;2023-05-10T13:08:19;21.1;91.7
43414;DHT22;29013;49.676;8.606;2023-05-10T13:13:41;21.0;92.1
43414;DHT22;29013;49.676;8.606;2023-05-10T13:19:04;21.1;91.4
43414;DHT22;29013;49.676;8.606;2023-05-10T13:24:27;21.1;90.4
43414;DHT22;29013;49.676;8.606;2023-05-10T13:29:46;21.4;91.6
43414;DHT22;29013;49.676;8.606;2023-05-10T13:35:10;21.5;89.2
43414;DHT22;29013;49.676;8.606;2023-05-10T13:40:35;21.3;90.0
43414;DHT22;29013;49.676;8.606;2023-05-10T13:45:59;21.2;90.1
43414;DHT22;29013;49.676;8.606;2023-05-10T13:51:21;21.2;90.5
43414;DHT22;29013;49.676;8.606;2023-05-10T13:56:43;21.1;90.7
43414;DHT22;29013;49.676;8.606;2023-05-10T14:02:01;21.4;91.2
43414;DHT22;29013;49.676;8.606;2023-05-10T14:07:22;21.4;91.0
43414;DHT22;29013;49.676;8.606;2023-05-10T14:12:43;21.4;91.4
43414;DHT22;29013;49.676;8.606;2023-05-10T14:18:05;21.6;91.8
43414;DHT22;29013;49.676;8.606;2023-05-10T14:23:26;21.7;90.4
43414;DHT22;29013;49.676;8.606;2023-05-10T14:28:46;21.7;90.5
43414;DHT22;29013;49.676;8.606;2023-05-10T14:34:08;21.8;90.5
43414;DHT22;29013;49.676;8.606;2023-05-10T14:39:28;21.9;86.9
43414;DHT22;29013;49.676;8.606;2023-05-10T14:44:46;21.8;88.3
43414;DHT22;29013;49.676;8.606;2023-05-10T14:50:24;21.7;88.3
43414;DHT22;29013;49.676;8.606;2023-05-10T14:55:48;21.6;86.0
43414;DHT22;29013;49.676;8.606;2023-05-10T15:01:11;21.5;86.5
43414;DHT22;29013;49.676;8.606;2023-05-10T15:06:36;21.6;87.3
43414;DHT22;29013;49.676;8.606;2023-05-10T15:12:00;21.9;86.7
43414;DHT22;29013;49.676;8.606;2023-05-10T15:17:22;21.9;83.7
43414;DHT22;29013;49.676;8.606;2023-05-10T15:22:45;21.9;84.7
43414;DHT22;29013;49.676;8.606;2023-05-10T15:28:08;21.9;83.8
43414;DHT22;29013;49.676;8.606;2023-05-10T15:34:17;22.0;85.1
43414;DHT22;29013;49.676;8.606;2023-05-10T15:39:38;22.1;87.2
43414;DHT22;29013;49.676;8.606;2023-05-10T15:44:56;21.9;83.0
43414;DHT22;29013;49.676;8.606;2023-05-10T15:50:15;21.7;84.6
43414;DHT22;29013;49.676;8.606;2023-05-10T15:55:35;21.7;84.0
43414;DHT22;29013;49.676;8.606;2023-05-10T16:02:26;21.7;83.4
43414;DHT22;29013;49.676;8.606;2023-05-10T16:09:21;22.5;81.5
43414;DHT22;29013;49.676;8.606;2023-05-10T16:14:45;22.7;77.9
43414;DHT22;29013;49.676;8.606;2023-05-10T16:20:35;22.6;81.8
43414;DHT22;29013;49.676;8.606;2023-05-10T16:42:39;25.7;67.8
43414;DHT22;29013;49.676;8.606;2023-05-10T16:48:02;24.2;71.0
43414;DHT22;29013;49.676;8.606;2023-05-10T16:53:19;23.3;69.9
43414;DHT22;29013;49.676;8.606;2023-05-10T16:58:42;22.5;70.6
43414;DHT22;29013;49.676;8.606;2023-05-10T17:04:03;22.1;70.5
43414;DHT22;29013;49.676;8.606;2023-05-10T17:09:26;21.8;71.6
43414;DHT22;29013;49.676;8.606;2023-05-10T17:14:47;21.5;73.7
43414;DHT22;29013;49.676;8.606;2023-05-10T17:20:12;21.3;73.7
43414;DHT22;29013;49.676;8.606;2023-05-10T17:25:35;21.1;74.6
43414;DHT22;29013;49.676;8.606;2023-05-10T17:31:01;21.1;75.1
43414;DHT22;29013;49.676;8.606;2023-05-10T17:36:27;20.9;76.0
43414;DHT22;29013;49.676;8.606;2023-05-10T17:41:49;20.8;76.4
43414;DHT22;29013;49.676;8.606;2023-05-10T17:47:15;20.6;77.5
43414;DHT22;29013;49.676;8.606;2023-05-10T17:52:37;20.4;77.8
43414;DHT22;29013;49.676;8.606;2023-05-10T17:57:59;20.2;76.6
43414;DHT22;29013;49.676;8.606;2023-05-10T18:04:14;20.0;78.0
43414;DHT22;29013;49.676;8.606;2023-05-10T18:09:35;20.0;81.8
43414;DHT22;29013;49.676;8.606;2023-05-10T18:14:57;19.7;83.3
43414;DHT22;29013;49.676;8.606;2023-05-10T18:27:04;19.4;88.8
43414;DHT22;29013;49.676;8.606;2023-05-10T18:32:25;19.2;90.1
43414;DHT22;29013;49.676;8.606;2023-05-10T18:37:43;19.0;90.6
43414;DHT22;29013;49.676;8.606;2023-05-10T18:43:08;18.7;92.0
43414;DHT22;29013;49.676;8.606;2023-05-10T18:48:33;18.4;93.0
43414;DHT22;29013;49.676;8.606;2023-05-10T18:53:54;18.2;93.3
43414;DHT22;29013;49.676;8.606;2023-05-10T18:59:17;18.0;93.4
43414;DHT22;29013;49.676;8.606;2023-05-10T19:04:36;17.8;93.3
43414;DHT22;29013;49.676;8.606;2023-05-10T19:09:55;17.7;93.6
43414;DHT22;29013;49.676;8.606;2023-05-10T19:15:18;17.7;93.8
43414;DHT22;29013;49.676;8.606;2023-05-10T19:20:44;17.6;94.3
43414;DHT22;29013;49.676;8.606;2023-05-10T19:26:31;17.4;95.0
43414;DHT22;29013;49.676;8.606;2023-05-10T19:31:52;17.4;95.0
43414;DHT22;29013;49.676;8.606;2023-05-10T19:37:10;17.3;95.1
43414;DHT22;29013;49.676;8.606;2023-05-10T19:42:35;17.2;95.3
43414;DHT22;29013;49.676;8.606;2023-05-10T19:47:54;17.3;95.6
43414;DHT22;29013;49.676;8.606;2023-05-10T19:53:18;17.2;95.7
43414;DHT22;29013;49.676;8.606;2023-05-10T19:58:42;17.1;96.0
43414;DHT22;29013;49.676;8.606;2023-05-10T20:04:07;17.0;96.0
43414;DHT22;29013;49.676;8.606;2023-05-10T20:09:31;16.9;96.0
43414;DHT22;29013;49.676;8.606;2023-05-10T20:14:53;16.8;96.6
43414;DHT22;29013;49.676;8.606;2023-05-10T20:20:16;16.7;96.4
43414;DHT22;29013;49.676;8.606;2023-05-10T20:25:39;16.6;96.4
43414;DHT22;29013;49.676;8.606;2023-05-10T20:31:02;16.5;96.7
43414;DHT22;29013;49.676;8.606;2023-05-10T20:36:25;16.4;96.7
43414;DHT22;29013;49.676;8.606;2023-05-10T20:41:49;16.4;97.3
43414;DHT22;29013;49.676;8.606;2023-05-10T20:47:10;16.3;97.5
43414;DHT22;29013;49.676;8.606;2023-05-10T20:52:30;16.3;97.1
43414;DHT22;29013;49.676;8.606;2023-05-10T21:12:38;18.9;93.4
43414;DHT22;29013;49.676;8.606;2023-05-10T21:17:59;17.6;95.1
43414;DHT22;29013;49.676;8.606;2023-05-10T21:23:20;16.7;96.5
43414;DHT22;29013;49.676;8.606;2023-05-10T21:28:40;16.1;97.4
43414;DHT22;29013;49.676;8.606;2023-05-10T21:34:01;15.9;98.1
43414;DHT22;29013;49.676;8.606;2023-05-10T21:39:21;15.6;98.6
43414;DHT22;29013;49.676;8.606;2023-05-10T21:44:44;15.5;99.3
43414;DHT22;29013;49.676;8.606;2023-05-10T21:50:10;15.4;99.5
43414;DHT22;29013;49.676;8.606;2023-05-10T21:55:33;15.3;99.5
43414;DHT22;29013;49.676;8.606;2023-05-10T22:00:54;15.1;99.9
43414;DHT22;29013;49.676;8.606;2023-05-10T22:06:43;14.9;99.9
43414;DHT22;29013;49.676;8.606;2023-05-10T22:12:05;15.1;99.9
43414;DHT22;29013;49.676;8.606;2023-05-10T22:17:30;15.0;99.9
43414;DHT22;29013;49.676;8.606;2023-05-10T22:22:52;15.0;99.9
43414;DHT22;29013;49.676;8.606;2023-05-10T22:28:09;14.9;99.9
43414;DHT22;29013;49.676;8.606;2023-05-10T22:33:55;14.8;99.9
43414;DHT22;29013;49.676;8.606;2023-05-10T22:39:13;14.9;99.9
43414;DHT22;29013;49.676;8.606;2023-05-10T22:44:33;14.8;99.9
43414;DHT22;29013;49.676;8.606;2023-05-10T22:49:53;14.7;99.9
43414;DHT22;29013;49.676;8.606;2023-05-10T22:55:18;14.6;99.9
43414;DHT22;29013;49.676;8.606;2023-05-10T23:00:41;14.6;99.9
43414;DHT22;29013;49.676;8.606;2023-05-10T23:06:06;14.5;99.9
43414;DHT22;29013;49.676;8.606;2023-05-10T23:11:30;14.5;99.9
43414;DHT22;29013;49.676;8.606;2023-05-10T23:16:55;14.4;99.9
43414;DHT22;29013;49.676;8.606;2023-05-10T23:22:21;14.4;99.9
43414;DHT22;29013;49.676;8.606;2023-05-10T23:27:46;14.3;99.9
43414;DHT22;29013;49.676;8.606;2023-05-10T23:33:07;14.3;99.9
43414;DHT22;29013;49.676;8.606;2023-05-10T23:38:32;14.3;99.9
43414;DHT22;29013;49.676;8.606;2023-05-10T23:43:57;14.2;99.9
43414;DHT22;29013;49.676;8.606;2023-05-10T23:49:23;14.2;99.9
43414;DHT22;29013;49.676;8.606;2023-05-10T23:54:47;14.2;99.9
